Time;durP1;ratioP1;P1;durP2;ratioP2;P2;SDS_P1;SDS_P2;PMS_P1;PMS_P2;Temp;Humidity;BMP_temperature;BMP_pressure;BME280_temperature;BME280_humidity;BME280_pressure;Samples;Min_cycle;Max_cycle;Signal;HPM_P1;HPM_P2
2023/03/21 00:01:29;;;;;;;;;12.33;12.33;;;;;14.25;55.88;101236.31;5059974;28;46502;-75
2023/03/21 00:03:54;;;;;;;;;13.67;13.67;;;;;13.80;55.83;101153.56;5057165;28;45394;-74
2023/03/21 00:06:20;;;;;;;;;15.00;14.00;;;;;14.23;55.59;101241.81;5055897;28;45455;-74
2023/03/21 00:08:45;;;;;;;;;14.33;13.00;;;;;13.91;55.30;101188.09;5049287;28;45616;-76
2023/03/21 00:11:11;;;;;;;;;15.67;14.00;;;;;14.20;55.31;101242.09;5056530;28;46668;-75
2023/03/21 00:13:41;;;;;;;;;13.00;12.67;;;;;13.97;55.20;101204.34;5056645;28;45236;-76
2023/03/21 00:16:15;;;;;;;;;17.00;15.00;;;;;14.25;55.14;101247.84;5058139;28;45506;-74
2023/03/21 00:18:45;;;;;;;;;11.67;11.00;;;;;14.16;55.05;101229.22;5056846;28;45509;-75
2023/03/21 00:21:14;;;;;;;;;15.33;14.33;;;;;14.22;55.45;101241.97;5056664;28;46428;-75
2023/03/21 00:23:40;;;;;;;;;16.33;13.67;;;;;14.02;55.20;101213.75;5056449;28;45238;-74
2023/03/21 00:26:05;;;;;;;;;17.33;15.67;;;;;14.15;56.13;101238.22;5056859;28;45492;-75
2023/03/21 00:28:30;;;;;;;;;15.33;13.33;;;;;13.79;56.33;101195.50;5060064;28;45385;-73
2023/03/21 00:30:59;;;;;;;;;18.67;17.00;;;;;13.64;56.27;101165.81;5059264;28;45613;-74
2023/03/21 00:33:25;;;;;;;;;14.33;13.33;;;;;14.01;56.57;101220.91;5059486;28;45294;-73
2023/03/21 00:35:52;;;;;;;;;13.67;11.67;;;;;14.06;57.91;101231.16;5059366;28;45453;-74
2023/03/21 00:38:19;;;;;;;;;15.00;13.00;;;;;13.27;58.73;101103.72;5059660;28;45529;-76
2023/03/21 00:40:44;;;;;;;;;17.00;14.33;;;;;13.29;58.54;101107.06;5057698;28;48538;-74
2023/03/21 00:43:17;;;;;;;;;12.67;10.00;;;;;14.04;58.63;101233.97;5059271;28;45477;-74
2023/03/21 00:45:43;;;;;;;;;14.67;14.67;;;;;13.78;58.58;101212.53;5058960;28;45590;-78
2023/03/21 00:48:09;;;;;;;;;13.67;12.67;;;;;13.96;59.12;101228.56;5059772;28;45494;-74
2023/03/21 00:50:35;;;;;;;;;14.00;14.00;;;;;13.91;58.98;101225.50;5058946;28;46255;-73
2023/03/21 00:53:01;;;;;;;;;15.67;15.00;;;;;13.57;59.14;101185.28;5040928;28;45372;-72
2023/03/21 00:55:26;;;;;;;;;17.67;13.67;;;;;13.46;58.79;101164.97;5041346;28;45544;-73
2023/03/21 00:57:51;;;;;;;;;17.67;15.67;;;;;12.99;59.12;101073.53;5059526;28;45393;-74
2023/03/21 01:00:17;;;;;;;;;10.67;8.67;;;;;13.83;58.68;101250.34;5041211;28;46142;-73
2023/03/21 01:02:55;;;;;;;;;14.33;12.67;;;;;13.32;58.89;101139.63;5059138;28;45514;-75
2023/03/21 01:08:17;;;;;;;;;15.00;12.67;;;;;12.98;58.22;101094.03;5061357;28;45688;-73
2023/03/21 01:10:45;;;;;;;;;19.00;16.00;;;;;13.65;58.44;101228.97;5059170;28;45733;-73
2023/03/21 01:13:12;;;;;;;;;14.00;13.33;;;;;11.88;58.51;100923.47;5059063;28;45550;-73
2023/03/21 01:15:43;;;;;;;;;15.33;14.00;;;;;13.66;58.07;101217.28;5059303;28;45337;-75
2023/03/21 01:18:09;;;;;;;;;15.67;15.33;;;;;13.57;58.52;101199.47;5056338;28;46168;-74
2023/03/21 01:20:34;;;;;;;;;14.33;13.67;;;;;13.36;58.19;101172.22;5058990;28;46378;-73
2023/03/21 01:23:00;;;;;;;;;15.00;14.67;;;;;13.32;58.41;101165.50;5059158;28;45332;-77
2023/03/21 01:25:25;;;;;;;;;17.00;14.00;;;;;13.29;58.38;101149.78;5050914;28;45493;-74
2023/03/21 01:27:51;;;;;;;;;20.33;17.67;;;;;13.56;57.84;101200.47;5059319;28;45594;-75
2023/03/21 01:30:16;;;;;;;;;13.00;12.67;;;;;11.66;57.34;100896.38;5058963;28;45856;-73
2023/03/21 01:32:42;;;;;;;;;15.00;15.00;;;;;13.54;57.59;101201.59;5059211;28;45521;-75
2023/03/21 01:35:07;;;;;;;;;15.00;11.00;;;;;13.55;57.26;101197.94;5058666;28;45519;-75
2023/03/21 01:37:33;;;;;;;;;18.33;14.67;;;;;13.51;57.50;101197.41;5057839;28;45219;-75
2023/03/21 01:39:58;;;;;;;;;10.00;10.00;;;;;13.33;56.81;101170.69;5059733;28;45967;-76
2023/03/21 01:42:24;;;;;;;;;16.33;14.00;;;;;13.53;57.22;101203.44;5058868;28;45669;-74
2023/03/21 01:44:58;;;;;;;;;13.67;12.00;;;;;13.43;56.94;101192.00;5058752;28;45404;-74
2023/03/21 01:47:25;;;;;;;;;16.33;12.00;;;;;13.53;56.97;101194.59;5058859;28;45448;-74
2023/03/21 01:49:53;;;;;;;;;15.00;12.00;;;;;13.25;56.74;101156.44;5058910;28;46324;-75
2023/03/21 01:52:23;;;;;;;;;10.67;9.67;;;;;12.52;56.45;101025.69;5058373;28;45416;-74
2023/03/21 01:54:50;;;;;;;;;20.33;15.00;;;;;13.12;56.67;101135.41;5058540;28;45583;-73
2023/03/21 01:57:23;;;;;;;;;13.00;10.67;;;;;13.45;56.38;101190.00;5057314;28;45530;-75
2023/03/21 01:59:51;;;;;;;;;9.33;9.33;;;;;13.42;56.32;101190.31;5041147;28;48731;-74
2023/03/21 02:02:28;;;;;;;;;11.00;9.67;;;;;13.39;56.61;101179.91;5058747;28;45276;-74
2023/03/21 02:04:56;;;;;;;;;13.33;10.67;;;;;12.99;55.98;101114.41;5058222;28;45195;-73
2023/03/21 02:07:34;;;;;;;;;10.67;9.00;;;;;13.34;56.08;101184.88;5058602;28;45689;-75
2023/03/21 02:10:03;;;;;;;;;10.00;10.00;;;;;13.33;56.00;101178.69;5033651;28;46572;-75
2023/03/21 02:12:30;;;;;;;;;11.33;9.33;;;;;13.32;55.85;101168.16;5058084;28;45432;-73
2023/03/21 02:14:56;;;;;;;;;9.00;8.67;;;;;13.03;55.77;101129.16;5058134;28;45436;-74
2023/03/21 02:17:33;;;;;;;;;6.67;5.67;;;;;13.27;56.17;101168.63;5059559;28;45540;-73
2023/03/21 02:20:14;;;;;;;;;12.00;8.00;;;;;13.28;55.70;101161.47;5044382;28;48403;-73
2023/03/21 02:22:50;;;;;;;;;11.67;9.33;;;;;13.29;55.28;101155.97;5044292;28;47308;-74
2023/03/21 02:25:28;;;;;;;;;10.67;9.00;;;;;13.29;55.29;101149.78;5045472;28;45525;-75
2023/03/21 02:28:25;;;;;;;;;7.00;7.00;;;;;12.83;55.42;101079.56;5058194;28;45297;-74
2023/03/21 02:31:25;;;;;;;;;11.33;10.33;;;;;12.43;54.89;101011.44;5057700;28;45523;-72
2023/03/21 02:34:11;;;;;;;;;7.67;7.67;;;;;13.23;54.82;101147.72;5057694;28;45450;-74
2023/03/21 02:37:08;;;;;;;;;8.00;8.00;;;;;13.22;54.44;101141.56;5057491;28;45565;-73
2023/03/21 02:39:39;;;;;;;;;8.00;6.33;;;;;13.24;54.14;101147.56;5058353;28;45354;-73
2023/03/21 02:42:17;;;;;;;;;7.00;6.00;;;;;13.19;54.28;101135.66;5057629;28;45466;-75
2023/03/21 02:44:49;;;;;;;;;7.67;5.00;;;;;12.43;53.69;101000.75;5057336;28;45332;-75
2023/03/21 02:47:35;;;;;;;;;6.00;5.00;;;;;13.19;54.14;101127.66;5041227;28;45537;-76
2023/03/21 02:50:12;;;;;;;;;5.00;5.00;;;;;13.24;53.48;101122.72;5056564;28;45430;-74
2023/03/21 02:52:41;;;;;;;;;8.00;6.33;;;;;12.90;53.83;101080.63;5057492;28;46529;-75
2023/03/21 02:55:29;;;;;;;;;8.00;7.00;;;;;13.10;53.51;101119.53;5057485;28;45220;-73
2023/03/21 02:57:58;;;;;;;;;4.00;4.00;;;;;12.25;53.88;100994.56;5057522;28;45335;-75
2023/03/21 03:00:30;;;;;;;;;6.33;6.33;;;;;13.04;53.99;101117.47;5058133;28;45408;-73
2023/03/21 03:02:55;;;;;;;;;5.67;5.67;;;;;12.91;53.54;101097.47;5057160;28;45695;-72
2023/03/21 03:05:28;;;;;;;;;7.67;6.33;;;;;13.05;53.55;101131.66;5057054;28;45479;-74
2023/03/21 03:08:27;;;;;;;;;5.00;5.00;;;;;13.04;53.67;101127.31;5057541;28;45511;-75
2023/03/21 03:11:22;;;;;;;;;6.67;5.00;;;;;12.12;53.95;100972.72;5054328;28;45403;-76
2023/03/21 03:13:50;;;;;;;;;6.00;5.00;;;;;13.08;53.31;101121.50;5035715;28;48965;-75
2023/03/21 03:16:35;;;;;;;;;6.00;6.00;;;;;13.02;53.36;101119.47;5057026;28;45349;-74
2023/03/21 03:19:06;;;;;;;;;6.33;6.00;;;;;12.99;53.29;101111.72;5061112;28;45553;-73
2023/03/21 03:21:55;;;;;;;;;8.00;8.00;;;;;12.68;53.39;101068.53;5059318;28;45485;-74
2023/03/21 03:24:32;;;;;;;;;4.67;4.67;;;;;13.05;53.77;101113.81;5056342;28;47573;-74
2023/03/21 03:27:14;;;;;;;;;8.67;5.00;;;;;13.03;53.18;101109.63;5057342;28;45462;-74
2023/03/21 03:29:41;;;;;;;;;8.33;6.33;;;;;12.84;53.23;101096.41;5055487;28;45476;-74
2023/03/21 03:32:18;;;;;;;;;9.67;7.00;;;;;12.79;53.07;101081.66;5049297;28;45483;-74
2023/03/21 03:34:55;;;;;;;;;5.00;5.00;;;;;12.94;53.10;101108.69;5057140;28;45624;-74
2023/03/21 03:37:25;;;;;;;;;6.00;6.00;;;;;12.88;52.76;101098.63;5056849;28;45467;-73
2023/03/21 03:39:58;;;;;;;;;6.67;5.67;;;;;12.99;52.91;101114.41;5057240;28;45226;-72
2023/03/21 03:42:30;;;;;;;;;7.00;6.33;;;;;13.00;53.02;101110.72;5040918;28;45608;-73
2023/03/21 03:44:56;;;;;;;;;7.00;4.33;;;;;12.77;52.92;101064.13;5056502;28;46227;-74
2023/03/21 03:47:42;;;;;;;;;6.33;5.67;;;;;12.99;52.97;101113.56;5056636;28;45334;-75
2023/03/21 03:50:24;;;;;;;;;5.67;5.00;;;;;12.66;52.71;101051.84;5056718;28;45555;-73
2023/03/21 03:52:56;;;;;;;;;6.00;4.00;;;;;12.90;52.95;101101.97;5056879;28;45306;-73
2023/03/21 03:55:25;;;;;;;;;6.33;5.00;;;;;12.49;53.39;101039.31;5056416;28;45783;-73
2023/03/21 03:57:52;;;;;;;;;5.00;5.00;;;;;12.86;53.02;101108.59;5049998;28;45613;-75
2023/03/21 04:00:18;;;;;;;;;5.00;5.00;;;;;12.87;53.32;101101.44;5056179;28;45491;-72
2023/03/21 04:02:44;;;;;;;;;4.33;4.00;;;;;12.79;52.76;101089.66;5063667;28;45533;-72
2023/03/21 04:05:10;;;;;;;;;5.33;5.33;;;;;12.88;53.52;101101.28;5056647;28;46670;-75
2023/03/21 04:07:35;;;;;;;;;5.00;5.00;;;;;12.86;53.70;101091.75;5049522;28;45413;-74
2023/03/21 04:10:00;;;;;;;;;5.67;4.00;;;;;12.59;54.03;101049.91;5056895;28;45549;-74
2023/03/21 04:12:26;;;;;;;;;7.67;7.33;;;;;12.84;53.54;101110.59;5056643;28;45458;-72
2023/03/21 04:14:51;;;;;;;;;7.00;5.00;;;;;12.82;53.90;101104.56;5056576;28;45427;-73
2023/03/21 04:17:18;;;;;;;;;9.67;7.00;;;;;12.71;53.97;101092.25;5039861;28;45668;-74
2023/03/21 04:19:44;;;;;;;;;5.00;5.00;;;;;12.19;53.77;101022.63;5056547;28;45408;-74
2023/03/21 04:22:11;;;;;;;;;8.00;7.00;;;;;12.74;53.80;101112.44;5056761;28;45281;-73
2023/03/21 04:24:37;;;;;;;;;4.67;4.67;;;;;12.16;54.07;101014.91;5056334;28;45730;-73
2023/03/21 04:27:04;;;;;;;;;8.00;4.67;;;;;12.13;54.18;101012.56;5056644;28;45561;-74
2023/03/21 04:29:29;;;;;;;;;6.00;5.00;;;;;12.36;54.24;101049.47;5038495;28;45537;-73
2023/03/21 04:31:55;;;;;;;;;7.00;6.00;;;;;9.94;53.66;100650.22;5041025;28;45594;-74
2023/03/21 04:34:22;;;;;;;;;8.00;7.00;;;;;12.01;53.86;101007.56;5057963;28;46424;-72
2023/03/21 04:36:49;;;;;;;;;6.67;5.67;;;;;12.72;53.76;101111.75;5056363;28;45324;-73
2023/03/21 04:39:15;;;;;;;;;5.00;5.00;;;;;12.29;53.82;101054.56;5042058;28;45519;-73
2023/03/21 04:41:43;;;;;;;;;6.67;6.67;;;;;12.69;54.19;101114.72;5047948;28;45397;-73
2023/03/21 04:44:10;;;;;;;;;8.00;6.67;;;;;12.66;54.08;101099.88;5055710;28;45763;-75
2023/03/21 04:46:36;;;;;;;;;8.00;7.00;;;;;12.42;54.27;101067.56;5045486;28;45503;-75
2023/03/21 04:49:02;;;;;;;;;5.33;5.33;;;;;12.58;54.21;101081.06;5056269;28;45329;-73
2023/03/21 04:51:28;;;;;;;;;7.00;5.33;;;;;12.53;54.29;101071.84;5056477;28;45250;-73
2023/03/21 04:53:56;;;;;;;;;5.00;5.00;;;;;12.68;53.96;101091.72;5056170;28;45548;-74
2023/03/21 04:56:32;;;;;;;;;7.33;6.00;;;;;12.66;55.27;101088.34;5056013;28;45404;-77
2023/03/21 04:59:00;;;;;;;;;7.00;5.00;;;;;12.72;54.45;101093.09;5054096;28;46817;-76
2023/03/21 05:01:29;;;;;;;;;8.67;7.33;;;;;12.72;54.92;101112.59;5059846;28;45441;-72
2023/03/21 05:03:57;;;;;;;;;10.00;9.00;;;;;12.31;55.02;101039.28;5056141;28;46618;-76
2023/03/21 05:06:22;;;;;;;;;7.00;6.00;;;;;12.75;54.72;101108.78;5055611;28;45495;-74
2023/03/21 05:08:47;;;;;;;;;7.00;7.00;;;;;12.45;54.69;101056.59;5045993;28;45345;-72
2023/03/21 05:11:13;;;;;;;;;4.67;4.33;;;;;12.43;55.08;101070.09;5055972;28;45471;-75
2023/03/21 05:13:38;;;;;;;;;7.67;6.33;;;;;12.73;54.97;101098.28;5058640;28;46585;-72
2023/03/21 05:16:04;;;;;;;;;5.00;5.00;;;;;12.63;55.35;101078.84;5059027;28;45403;-71
2023/03/21 05:18:33;;;;;;;;;6.00;5.00;;;;;12.76;55.59;101105.13;5059166;28;45639;-74
2023/03/21 05:20:59;;;;;;;;;5.67;5.67;;;;;12.63;55.32;101078.00;5059558;28;45403;-73
2023/03/21 05:23:24;;;;;;;;;8.67;7.67;;;;;12.64;55.34;101085.00;5044745;28;47663;-74
2023/03/21 05:25:50;;;;;;;;;6.00;4.33;;;;;12.74;55.62;101091.09;5061258;28;45476;-75
2023/03/21 05:28:19;;;;;;;;;7.67;6.00;;;;;12.71;55.39;101091.41;5059032;28;45460;-76
2023/03/21 05:30:47;;;;;;;;;5.00;5.00;;;;;12.67;55.48;101082.88;5059425;28;45458;-74
2023/03/21 05:33:13;;;;;;;;;9.33;6.67;;;;;12.28;55.92;101020.91;5058610;28;46646;-73
2023/03/21 05:35:38;;;;;;;;;7.00;6.00;;;;;12.70;55.74;101100.41;5058646;28;45205;-74
2023/03/21 05:38:04;;;;;;;;;10.00;8.00;;;;;12.63;55.84;101094.00;5058684;28;45552;-72
2023/03/21 05:40:29;;;;;;;;;7.00;7.00;;;;;12.32;56.55;101037.44;5059254;28;45309;-74
2023/03/21 05:42:56;;;;;;;;;6.00;6.00;;;;;12.61;56.60;101090.59;5059795;28;45346;-73
2023/03/21 05:45:21;;;;;;;;;7.67;6.67;;;;;12.64;57.04;101093.84;5043446;28;45550;-74
2023/03/21 05:47:46;;;;;;;;;10.00;8.00;;;;;12.63;57.01;101100.16;5058932;28;45314;-75
2023/03/21 05:50:12;;;;;;;;;9.00;7.33;;;;;12.46;57.34;101061.78;5058918;28;45531;-72
2023/03/21 05:52:38;;;;;;;;;7.00;7.00;;;;;12.22;57.87;101037.50;5058727;28;46505;-74
2023/03/21 05:55:04;;;;;;;;;9.67;7.00;;;;;12.10;58.17;101028.84;5058056;28;45466;-73
2023/03/21 05:57:33;;;;;;;;;8.33;6.67;;;;;12.48;58.11;101096.31;5058333;28;45669;-75
2023/03/21 05:59:59;;;;;;;;;7.00;7.00;;;;;12.47;58.10;101087.47;5059013;28;45530;-72
2023/03/21 06:02:25;;;;;;;;;8.00;7.00;;;;;12.51;58.59;101089.84;5045669;28;47046;-72
2023/03/21 06:04:50;;;;;;;;;8.33;7.33;;;;;12.51;58.26;101089.84;5056425;28;45288;-74
2023/03/21 06:07:15;;;;;;;;;11.00;10.33;;;;;12.06;58.33;101029.28;5059326;28;45208;-74
2023/03/21 06:09:41;;;;;;;;;9.67;7.00;;;;;12.42;58.97;101112.91;5046225;28;45728;-75
2023/03/21 06:12:06;;;;;;;;;8.67;7.00;;;;;12.41;58.33;101074.75;5057035;28;45759;-73
2023/03/21 06:14:31;;;;;;;;;8.00;7.33;;;;;12.48;58.25;101082.97;5053774;28;45489;-74
2023/03/21 06:16:57;;;;;;;;;7.67;7.67;;;;;12.10;58.77;101031.50;5058362;28;45415;-74
2023/03/21 06:19:22;;;;;;;;;7.00;7.00;;;;;12.42;58.25;101104.91;5058584;28;45217;-73
2023/03/21 06:21:48;;;;;;;;;10.33;8.00;;;;;12.44;58.71;101102.94;5057170;28;45507;-73
2023/03/21 06:24:14;;;;;;;;;11.00;8.67;;;;;12.35;58.44;101080.63;5047880;28;45356;-73
2023/03/21 06:26:41;;;;;;;;;10.67;10.00;;;;;12.39;58.77;101092.69;5058289;28;45332;-74
2023/03/21 06:29:06;;;;;;;;;8.33;7.00;;;;;12.40;59.15;101121.03;5058387;28;45342;-75
2023/03/21 06:31:32;;;;;;;;;10.33;9.00;;;;;12.47;58.93;101116.81;5057617;28;45755;-75
2023/03/21 06:33:57;;;;;;;;;10.67;10.00;;;;;12.47;58.57;101111.47;5049316;28;45296;-73
2023/03/21 06:36:23;;;;;;;;;8.33;6.00;;;;;11.81;59.23;100999.66;5057647;28;45525;-75
2023/03/21 06:38:48;;;;;;;;;8.67;8.33;;;;;10.91;58.83;100853.75;5060005;28;45332;-74
2023/03/21 06:41:15;;;;;;;;;8.33;8.33;;;;;12.06;59.12;101039.94;5061469;28;45144;-74
2023/03/21 06:43:41;;;;;;;;;13.67;10.00;;;;;12.42;58.78;101091.56;5060608;28;45342;-73
2023/03/21 06:46:06;;;;;;;;;10.00;8.67;;;;;12.36;58.87;101082.31;5058077;28;45646;-74
2023/03/21 06:48:32;;;;;;;;;8.00;8.00;;;;;12.40;59.35;101080.19;5058682;28;45483;-73
2023/03/21 06:50:57;;;;;;;;;9.67;8.33;;;;;12.25;59.02;101058.53;5058070;28;46430;-75
2023/03/21 06:53:26;;;;;;;;;8.33;8.33;;;;;12.41;58.83;101080.06;5058060;28;45509;-75
2023/03/21 06:55:55;;;;;;;;;13.67;10.00;;;;;11.68;58.20;100943.16;5057642;28;46182;-74
2023/03/21 06:58:21;;;;;;;;;12.67;11.00;;;;;12.15;59.07;101023.06;5057967;28;45206;-75
2023/03/21 07:00:47;;;;;;;;;10.33;9.33;;;;;11.83;59.03;100979.03;5067893;28;47344;-74
2023/03/21 07:03:13;;;;;;;;;9.00;9.00;;;;;11.88;59.40;100986.59;5057096;28;45559;-77
2023/03/21 07:05:39;;;;;;;;;8.33;8.33;;;;;12.15;58.97;101034.56;5050025;28;45480;-75
2023/03/21 07:08:09;;;;;;;;;10.33;10.33;;;;;12.47;58.50;101074.13;5056105;28;45570;-77
2023/03/21 07:10:38;;;;;;;;;10.00;10.00;;;;;12.50;58.41;101062.31;5057076;28;46600;-76
2023/03/21 07:13:03;;;;;;;;;9.33;9.33;;;;;11.91;58.82;100950.81;5057068;28;45389;-74
2023/03/21 07:15:29;;;;;;;;;8.67;7.67;;;;;11.57;58.38;100882.09;5057431;28;45514;-75
2023/03/21 07:17:54;;;;;;;;;12.00;12.00;;;;;12.83;57.65;101066.22;5057920;28;45572;-76
2023/03/21 07:20:19;;;;;;;;;14.33;13.33;;;;;12.85;58.26;101042.88;5055999;28;46292;-78
2023/03/21 07:22:45;;;;;;;;;7.00;7.00;;;;;12.89;56.76;101020.22;5047418;28;46962;-75
2023/03/21 07:25:10;;;;;;;;;11.00;11.00;;;;;12.98;56.93;101027.31;5049945;28;45537;-75
2023/03/21 07:27:36;;;;;;;;;9.67;8.67;;;;;13.22;56.83;101052.59;5056000;28;45505;-74
2023/03/21 07:30:03;;;;;;;;;11.33;11.33;;;;;13.00;56.77;101001.31;5045216;28;48356;-76
2023/03/21 07:32:32;;;;;;;;;10.00;8.00;;;;;12.90;56.28;100943.69;5055648;28;45376;-74
2023/03/21 07:34:58;;;;;;;;;10.00;8.00;;;;;13.73;55.87;101072.34;5056984;28;45299;-75
2023/03/21 07:37:24;;;;;;;;;12.00;10.00;;;;;13.61;55.04;101037.03;5040151;28;45523;-75
2023/03/21 07:39:50;;;;;;;;;10.00;9.00;;;;;13.91;55.23;101075.81;5039184;28;48521;-73
2023/03/21 07:42:19;;;;;;;;;13.00;10.00;;;;;13.70;55.06;101020.06;5057677;28;45486;-75
2023/03/21 07:44:44;;;;;;;;;9.00;8.00;;;;;13.78;54.78;101025.47;5032127;28;45531;-75
2023/03/21 07:47:09;;;;;;;;;10.00;9.33;;;;;13.93;54.66;101042.59;5056828;28;45474;-75
2023/03/21 07:49:36;;;;;;;;;11.33;9.33;;;;;13.80;54.77;100993.22;5056432;28;45577;-78
2023/03/21 07:52:02;;;;;;;;;11.00;9.67;;;;;14.41;54.28;101056.34;5046963;28;45569;-76
2023/03/21 07:54:27;;;;;;;;;11.67;11.00;;;;;14.26;53.99;100999.97;5046245;28;45437;-76
2023/03/21 07:56:54;;;;;;;;;22.33;20.33;;;;;14.57;53.29;101013.63;5041639;28;45313;-75
2023/03/21 07:59:19;;;;;;;;;18.67;13.00;;;;;14.81;52.88;101005.66;5038688;28;48127;-76
2023/03/21 08:01:45;;;;;;;;;14.00;13.67;;;;;14.63;52.05;100905.97;5055787;28;45417;-77
2023/03/21 08:04:10;;;;;;;;;12.33;12.33;;;;;15.35;51.33;100984.59;5056670;28;45470;-74
2023/03/21 08:06:36;;;;;;;;;12.33;11.33;;;;;15.74;50.60;101013.34;5041656;28;45249;-76
2023/03/21 08:09:02;;;;;;;;;13.00;11.00;;;;;15.75;50.27;101012.34;5054874;28;47828;-76
2023/03/21 08:11:30;;;;;;;;;11.33;10.33;;;;;15.81;50.28;101025.06;5055494;28;45514;-75
2023/03/21 08:13:56;;;;;;;;;11.00;8.67;;;;;15.93;50.31;101042.47;5055687;28;45533;-77
2023/03/21 08:16:22;;;;;;;;;11.67;11.67;;;;;15.93;50.23;101068.44;5045913;28;45550;-76
2023/03/21 08:18:47;;;;;;;;;18.00;12.33;;;;;15.82;50.30;101078.53;5055888;28;45673;-77
2023/03/21 08:21:12;;;;;;;;;11.00;10.00;;;;;15.43;50.96;101048.91;5056039;28;45459;-81
2023/03/21 08:23:38;;;;;;;;;11.33;11.33;;;;;15.42;51.06;101076.69;5058662;28;45452;-78
2023/03/21 08:26:04;;;;;;;;;15.33;15.33;;;;;15.08;51.83;101076.00;5058433;28;45307;-74
2023/03/21 08:28:29;;;;;;;;;13.00;10.33;;;;;14.73;52.57;101044.94;5036551;28;48463;-78
2023/03/21 08:30:54;;;;;;;;;14.00;11.00;;;;;14.30;53.00;101017.38;5060579;28;45455;-75
2023/03/21 08:33:20;;;;;;;;;13.33;12.00;;;;;14.44;53.55;101056.09;5037750;28;45853;-74
2023/03/21 08:35:45;;;;;;;;;18.33;16.33;;;;;14.47;54.01;101103.91;5058733;28;45289;-76
2023/03/21 08:38:11;;;;;;;;;13.00;10.67;;;;;14.45;54.42;101076.47;5042449;28;47660;-75
2023/03/21 08:40:37;;;;;;;;;14.00;12.67;;;;;14.24;54.22;101026.88;5054668;28;45349;-83
2023/03/21 08:43:02;;;;;;;;;10.67;10.67;;;;;14.01;54.08;100942.88;5054798;28;45320;-76
2023/03/21 08:45:28;;;;;;;;;15.00;13.33;;;;;14.73;53.48;101045.78;5057487;28;45223;-77
2023/03/21 08:47:54;;;;;;;;;15.00;14.00;;;;;14.61;53.20;101013.13;5060926;28;46301;-76
2023/03/21 08:50:22;;;;;;;;;14.00;13.67;;;;;14.48;53.11;100967.31;5060789;28;45182;-76
2023/03/21 08:52:48;;;;;;;;;13.67;12.67;;;;;15.11;52.88;101062.25;5060010;28;45508;-76
2023/03/21 08:55:16;;;;;;;;;11.67;11.67;;;;;15.51;52.07;101083.72;5060043;28;45429;-76
2023/03/21 08:57:42;;;;;;;;;15.33;12.00;;;;;15.76;51.48;101070.31;5060028;28;46895;-76
2023/03/21 09:00:13;;;;;;;;;10.33;9.67;;;;;16.21;51.22;101091.16;5060311;28;45256;-77
2023/03/21 09:02:48;;;;;;;;;18.33;16.67;;;;;15.95;49.59;100951.97;5060126;28;45378;-76
2023/03/21 09:05:15;;;;;;;;;13.67;10.33;;;;;17.01;48.25;101053.41;5041901;28;45468;-75
2023/03/21 09:07:41;;;;;;;;;17.67;13.33;;;;;17.17;47.57;101055.97;5060173;28;45645;-76
2023/03/21 09:10:10;;;;;;;;;15.00;12.00;;;;;16.46;47.54;100927.41;5060079;28;45416;-76
2023/03/21 09:12:36;;;;;;;;;10.00;10.00;;;;;17.32;47.67;101074.84;5060395;28;45372;-76
2023/03/21 09:15:03;;;;;;;;;11.00;10.67;;;;;17.18;47.25;101054.97;5042373;28;45395;-76
2023/03/21 09:17:30;;;;;;;;;10.00;9.33;;;;;17.15;47.34;101046.44;5060811;28;46098;-75
2023/03/21 09:19:56;;;;;;;;;9.33;8.00;;;;;16.70;47.74;100989.84;5059534;28;45438;-75
2023/03/21 09:22:22;;;;;;;;;9.33;9.33;;;;;17.24;47.59;101070.38;5041902;28;45451;-78
2023/03/21 09:24:49;;;;;;;;;9.67;9.67;;;;;16.79;47.60;100993.28;5060913;28;45358;-75
2023/03/21 09:27:21;;;;;;;;;8.33;8.33;;;;;17.39;47.41;101089.22;5058694;28;47603;-76
2023/03/21 09:29:48;;;;;;;;;10.67;8.67;;;;;16.97;47.38;100971.50;5059505;28;45279;-77
2023/03/21 09:32:13;;;;;;;;;7.33;7.33;;;;;17.19;46.95;100961.75;5059697;28;45482;-75
2023/03/21 09:34:39;;;;;;;;;7.67;7.67;;;;;17.78;46.14;101038.00;5041930;28;45302;-78
2023/03/21 09:37:12;;;;;;;;;6.00;5.00;;;;;18.25;45.89;101077.19;5059535;28;46566;-76
2023/03/21 09:39:43;;;;;;;;;7.00;6.33;;;;;17.55;45.73;100941.25;5060732;28;45531;-77
2023/03/21 09:42:20;;;;;;;;;6.00;6.00;;;;;18.34;45.41;101097.59;5042307;28;45459;-76
2023/03/21 09:45:00;;;;;;;;;6.00;6.00;;;;;18.30;45.59;101090.91;5060012;28;45485;-77
2023/03/21 09:47:31;;;;;;;;;7.33;6.33;;;;;18.18;45.93;101089.69;5039390;28;45328;-77
2023/03/21 09:50:15;;;;;;;;;9.67;6.00;;;;;17.88;46.36;101049.34;5055254;28;45347;-77
2023/03/21 09:52:47;;;;;;;;;11.67;9.67;;;;;17.85;46.43;101086.53;5059705;28;45466;-77
2023/03/21 09:55:23;;;;;;;;;12.00;8.67;;;;;17.46;46.93;101059.78;5059317;28;45479;-75
2023/03/21 09:57:59;;;;;;;;;12.67;9.67;;;;;16.57;47.46;100945.75;5059015;28;46686;-76
2023/03/21 10:00:36;;;;;;;;;10.33;7.67;;;;;17.24;48.07;101070.38;5059888;28;45372;-74
2023/03/21 10:03:06;;;;;;;;;3.67;3.67;;;;;17.12;48.90;101077.16;5060723;28;45323;-75
2023/03/21 10:05:33;;;;;;;;;6.00;5.00;;;;;17.16;48.39;101069.59;5058062;28;45433;-76
2023/03/21 10:08:12;;;;;;;;;6.33;6.00;;;;;17.39;48.19;101075.78;5057615;28;47630;-75
2023/03/21 10:10:49;;;;;;;;;5.67;5.67;;;;;17.45;48.11;101076.94;5059254;28;45397;-76
2023/03/21 10:13:24;;;;;;;;;7.67;5.00;;;;;17.47;48.24;101078.44;5059763;28;45284;-77
2023/03/21 10:15:49;;;;;;;;;11.33;6.33;;;;;17.19;48.18;101034.28;5058447;28;45588;-76
2023/03/21 10:18:23;;;;;;;;;11.33;8.33;;;;;17.38;48.48;101090.25;5057507;28;47410;-75
2023/03/21 10:20:50;;;;;;;;;9.00;7.00;;;;;17.30;48.80;101085.78;5057908;28;45299;-75
2023/03/21 10:23:19;;;;;;;;;9.33;7.33;;;;;17.20;48.73;101076.28;5058012;28;45313;-77
2023/03/21 10:25:49;;;;;;;;;8.33;8.33;;;;;16.62;49.13;101014.03;5059264;28;45638;-75
2023/03/21 10:28:19;;;;;;;;;9.00;8.67;;;;;16.92;49.37;101079.47;5058721;28;47559;-77
2023/03/21 10:30:49;;;;;;;;;12.00;7.67;;;;;16.66;49.81;101047.59;5059194;28;45872;-77
2023/03/21 10:33:19;;;;;;;;;10.33;7.33;;;;;16.41;50.14;101017.28;5058673;28;45273;-75
2023/03/21 10:35:51;;;;;;;;;7.00;7.00;;;;;16.42;50.45;101040.47;5057683;28;45533;-74
2023/03/21 10:38:20;;;;;;;;;8.00;7.00;;;;;16.48;50.72;101038.94;5058942;28;46318;-72
2023/03/21 10:40:45;;;;;;;;;6.00;6.00;;;;;16.72;50.60;101072.88;5041822;28;45357;-76
2023/03/21 10:43:26;;;;;;;;;9.67;6.00;;;;;16.89;50.50;101073.63;5040724;28;45475;-75
2023/03/21 10:45:55;;;;;;;;;6.00;6.00;;;;;16.98;50.43;101048.38;5040705;28;45456;-75
2023/03/21 10:48:22;;;;;;;;;7.00;7.00;;;;;16.98;50.01;101025.03;5058730;28;46838;-76
2023/03/21 10:50:52;;;;;;;;;6.67;6.67;;;;;17.19;49.89;101032.44;5060679;28;45269;-74
2023/03/21 10:53:28;;;;;;;;;4.67;4.33;;;;;17.49;49.65;101048.69;5043918;28;45277;-76
2023/03/21 10:55:58;;;;;;;;;8.33;6.00;;;;;17.02;49.50;100966.47;5040984;28;45494;-75
2023/03/21 10:58:32;;;;;;;;;6.33;6.33;;;;;17.16;49.37;100968.31;5040018;28;45727;-76
2023/03/21 11:01:01;;;;;;;;;2.33;2.33;;;;;17.59;49.25;101041.16;5039910;28;45448;-76
2023/03/21 11:03:36;;;;;;;;;7.33;5.33;;;;;17.01;49.27;100927.16;5040302;28;45463;-76
2023/03/21 11:06:07;;;;;;;;;5.00;5.00;;;;;17.93;48.91;101057.69;5040440;28;45652;-77
2023/03/21 11:08:44;;;;;;;;;7.00;5.00;;;;;17.98;48.44;101043.66;5056506;28;45669;-76
2023/03/21 11:11:18;;;;;;;;;9.33;9.33;;;;;17.33;48.77;100934.91;5044192;28;45262;-77
2023/03/21 11:13:44;;;;;;;;;9.33;6.67;;;;;18.16;48.69;101067.53;5037103;28;45289;-77
2023/03/21 11:16:10;;;;;;;;;7.00;6.33;;;;;18.18;49.12;101058.22;5019980;28;45537;-78
2023/03/21 11:18:42;;;;;;;;;5.33;4.00;;;;;17.78;48.88;100992.28;5019463;28;46580;-76
2023/03/21 11:21:10;;;;;;;;;8.33;7.00;;;;;18.09;49.04;101062.06;5037571;28;45227;-79
2023/03/21 11:23:42;;;;;;;;;9.00;6.67;;;;;17.75;49.17;100998.03;5019894;28;45420;-77
2023/03/21 11:26:11;;;;;;;;;6.33;5.00;;;;;17.72;49.10;100998.41;5038630;28;45475;-77
2023/03/21 11:28:40;;;;;;;;;8.33;5.00;;;;;18.06;49.35;101053.53;5038474;28;46527;-77
2023/03/21 11:31:10;;;;;;;;;5.00;5.00;;;;;18.20;49.56;101066.13;5037935;28;45376;-76